Home > Products > Valid Products > MTR

000
SAUS46 KMFR 250300
MTRMHS
METAR KMHS 250256Z AUTO 00000KT 4SM HZ CLR 06/02 A3035 RMK AO2
SLP306 T00610022 53007





000
SAUS46 KMFR 250257
MTRSXT
METAR KSXT 250256Z AUTO 10005KT 10SM CLR 14/02 A3031 RMK AO2 SLP243
T01440017 53001





000
SAUS46 KMFR 250157
MTRSXT
METAR KSXT 250156Z AUTO 12008KT 10SM CLR 14/02 A3031 RMK AO2 SLP240
T01390022





000
SAUS46 KMFR 250157
MTRSXT
METAR KSXT 250156Z AUTO 12008KT 10SM CLR 14/02 A3031 RMK AO2 SLP240
T01390022





000
SAUS46 KMFR 250057
MTRSXT
METAR KSXT 250056Z AUTO 11007KT 10SM CLR 14/03 A3031 RMK AO2 SLP244
T01390028





000
SAUS46 KMFR 250000
MTRMHS
METAR KMHS 242356Z AUTO VRB03KT 10SM CLR 15/02 A3032 RMK AO2 SLP288
T01500022 10150 20100 56015





000
SAUS46 KMFR 242357
MTRSXT
METAR KSXT 242356Z AUTO 10008KT 10SM CLR 14/03 A3031 RMK AO2 SLP244
T01390028 10172 20122 55012





000
SAUS46 KMFR 242257
MTRSXT
METAR KSXT 242256Z AUTO 13008KT 10SM CLR 14/03 A3031 RMK AO2 SLP243
T01440028





000
SAUS46 KMFR 242200
MTRMHS
METAR KMHS 242156Z AUTO VRB06KT 10SM CLR 14/02 A3035 RMK AO2 SLP298
T01390017





000
SAUS46 KMFR 242157
MTRSXT
METAR KSXT 242156Z AUTO 15005KT 10SM CLR 16/03 A3033 RMK AO2 SLP249
T01610033





000
SAUS46 KMFR 242100
MTRMHS
METAR KMHS 242056Z AUTO 31007KT 10SM CLR 14/02 A3037 RMK AO2 SLP304
T01390017 58019





000
SAUS46 KMFR 242057
MTRSXT
METAR KSXT 242056Z AUTO 12008KT 10SM CLR 14/03 A3035 RMK AO2 SLP261
T01390028 58014





000
SAUS46 KMFR 241957
MTRSXT
METAR KSXT 241956Z AUTO 12009KT 10SM CLR 14/02 A3038 RMK AO2 SLP266
T01390022





000
SAUS46 KMFR 241857
MTRSXT
METAR KSXT 241856Z AUTO 12009KT 10SM CLR 13/02 A3040 RMK AO2 SLP274
T01330022





000
SAUS46 KMFR 241757
MTRSXT
METAR KSXT 241756Z AUTO 12008KT 10SM CLR 12/02 A3040 RMK AO2 SLP275
T01220022 10128 20089 53003





000
SAUS46 KMFR 241657
MTRSXT
METAR KSXT 241656Z AUTO 13008KT 10SM CLR 11/01 A3038 RMK AO2 SLP270
T01110011





000
SAUS46 KMFR 241557
MTRSXT
METAR KSXT 241556Z AUTO 13009KT 10SM CLR 10/01 A3038 RMK AO2 SLP272
T01000006





000
SAUS46 KMFR 241457
MTRSXT
METAR KSXT 241456Z AUTO 13009KT 10SM CLR 09/01 A3039 RMK AO2 SLP275
T00940006 58001





000
SAUS46 KMFR 241400
MTRMHS
METAR KMHS 241356Z AUTO 05003KT 10SM CLR 01/M02 A3042 RMK AO2 SLP329
T00061017





000
SAUS46 KMFR 241357
MTRSXT
METAR KSXT 241356Z AUTO 13007KT 10SM CLR 11/00 A3039 RMK AO2 SLP274
T01110000





000
SAUS46 KMFR 241300
MTRMHS
METAR KMHS 241256Z AUTO 00000KT 10SM CLR 01/M02 A3043 RMK AO2 SLP332
T00061017





000
SAUS46 KMFR 241257
MTRSXT
METAR KSXT 241256Z AUTO 13008KT 10SM CLR 11/01 A3039 RMK AO2 SLP277
T01060006





000
SAUS46 KMFR 241200
MTRMHS
METAR KMHS 241156Z AUTO 04003KT 10SM CLR 01/M01 A3043 RMK AO2 SLP328
T00061011 10028 20000 58006





000
SAUS46 KMFR 241157
MTRSXT
METAR KSXT 241156Z AUTO 13010KT 10SM CLR 09/01 A3039 RMK AO2 SLP277
T00940011 10106 20078 58006





000
SAUS46 KMFR 241057
MTRSXT
METAR KSXT 241056Z AUTO 13011KT 10SM CLR 09/02 A3040 RMK AO2 SLP280
T00890017





000
SAUS46 KMFR 241000
MTRMHS
METAR KMHS 240956Z AUTO 04003KT 10SM CLR 01/M02 A3045 RMK AO2 SLP333
T00111017





000
SAUS46 KMFR 240957
MTRSXT
METAR KSXT 240956Z AUTO 13011KT 10SM CLR 08/03 A3041 RMK AO2 SLP288
T00780033





000
SAUS46 KMFR 240957
MTRSXT
METAR KSXT 240956Z AUTO 13011KT 10SM CLR 08/03 A3041 RMK AO2 SLP288
T00780033





000
SAUS46 KMFR 240857
MTRSXT
METAR KSXT 240856Z AUTO 13012KT 10SM CLR 08/03 A3041 RMK AO2 SLP289
T00830028 58011





000
SAUS46 KMFR 240800
MTRMHS
METAR KMHS 240756Z AUTO 04003KT 8SM CLR 02/M01 A3046 RMK AO2 SLP338
T00171011 401441006





000
SAUS46 KMFR 240757
MTRSXT
METAR KSXT 240756Z AUTO 12009KT 10SM CLR 10/01 A3044 RMK AO2 SLP291
T01000011 401280072





000
SAUS46 KMFR 240657
MTRSXT
METAR KSXT 240656Z AUTO 13008KT 10SM CLR 09/01 A3045 RMK AO2 SLP302
T00940011





000
SAUS46 KMFR 240557
MTRSXT
METAR KSXT 240556Z AUTO 12005KT 10SM CLR 11/01 A3045 RMK AO2 SLP299
T01060006 10128 20106 56002





000
SAUS46 KMFR 240457
MTRSXT
METAR KSXT 240456Z AUTO 08004KT 10SM CLR 12/M01 A3045 RMK AO2 SLP300
T01171006





000
SAUS46 KMFR 240357
MTRSXT
METAR KSXT 240356Z AUTO 00000KT 10SM CLR 12/M02 A3045 RMK AO2 SLP298
T01221022





000
SAUS46 KMFR 240300
MTRMHS
METAR KMHS 240256Z AUTO 00000KT 10SM CLR 08/00 A3045 RMK AO2 SLP343
T00780000 53007





000
SAUS46 KMFR 240257
MTRSXT
METAR KSXT 240256Z AUTO 00000KT 10SM FEW120 12/M01 A3046 RMK AO2
SLP302 T01171006 53011





000
SAUS46 KMFR 240157
MTRSXT
METAR KSXT 240156Z AUTO 15005KT 10SM CLR 11/M01 A3044 RMK AO2 SLP298
T01111006





000
SAUS46 KMFR 240057
MTRSXT
METAR KSXT 240056Z AUTO 12007KT 10SM FEW120 11/01 A3043 RMK AO2
SLP294 T01060006





000
SAUS46 KMFR 240000
MTRMHS
METAR KMHS 232356Z AUTO 29005KT 10SM CLR 12/M01 A3043 RMK AO2 SLP329
T01221006 10144 20078 56012





000
SAUS46 KMFR 232357
MTRSXT
METAR KSXT 232356Z AUTO 12008KT 10SM CLR 11/01 A3042 RMK AO2 SLP292
T01110011 10128 20083 56009





000
SAUS46 KMFR 232300
MTRMHS
METAR KMHS 232256Z AUTO VRB05KT 10SM CLR 13/M01 A3043 RMK AO2 SLP329
T01281006





000
SAUS46 KMFR 232257
MTRSXT
METAR KSXT 232256Z AUTO 10006KT 10SM CLR 12/02 A3043 RMK AO2 SLP291
T01170017





000
SAUS46 KMFR 232157
MTRSXT
METAR KSXT 232156Z AUTO 11005KT 10SM FEW085 11/02 A3044 RMK AO2
SLP298 T01110017





000
SAUS46 KMFR 232157
MTRSXT
METAR KSXT 232156Z AUTO 11005KT 10SM FEW085 11/02 A3044 RMK AO2
SLP298 T01110017





000
SAUS46 KMFR 232057
MTRSXT
METAR KSXT 232056Z AUTO 13008KT 10SM FEW055 BKN080 BKN110 11/02
A3045 RMK AO2 SLP302 T01060017 58008





000
SAUS46 KMFR 231957
MTRSXT
METAR KSXT 231956Z AUTO 14006KT 10SM BKN095 12/02 A3048 RMK AO2
SLP306 T01220017





000
SAUS46 KMFR 231857
MTRSXT
METAR KSXT 231856Z AUTO 15005KT 10SM OVC060 09/M01 A3049 RMK AO2
SLP321 T00941006





000
SAUS46 KMFR 231757
MTRSXT
METAR KSXT 231756Z AUTO 13007KT 10SM OVC065 09/M01 A3048 RMK AO2
SLP313 T00891011 10089 20072 53010





000
SAUS46 KMFR 231657
MTRSXT
METAR KSXT 231656Z AUTO 13009KT 10SM OVC060 08/M02 A3046 RMK AO2
SLP311 T00781017





000
SAUS46 KMFR 231657
MTRSXT
METAR KSXT 231656Z AUTO 13009KT 10SM OVC060 08/M02 A3046 RMK AO2
SLP311 T00781017





000
SAUS46 KMFR 231557
MTRSXT
METAR KSXT 231556Z AUTO 13009KT 10SM SCT070 07/M02 A3045 RMK AO2
SLP310 T00721022





000
SAUS46 KMFR 231500
MTRMHS
METAR KMHS 231456Z AUTO 05004KT 9SM CLR M01/M03 A3048 RMK AO2 SLP359
T10061028 53009





000
SAUS46 KMFR 231457
MTRSXT
METAR KSXT 231456Z AUTO 12010KT 10SM BKN075 08/M03 A3044 RMK AO2
SLP306 T00781028 53003





000
SAUS46 KMFR 231357
MTRSXT
METAR KSXT 231356Z AUTO 13008KT 10SM SCT075 OVC120 08/M03 A3044 RMK
AO2 SLP304 T00781028





000
SAUS46 KMFR 231257
MTRSXT
METAR KSXT 231256Z AUTO 13006KT 10SM BKN075 08/M03 A3043 RMK AO2
SLP304 T00781028





000
SAUS46 KMFR 231157
MTRSXT
METAR KSXT 231156Z AUTO 12006KT 10SM BKN085 OVC110 08/M03 A3043 RMK
AO2 SLP301 T00781033 10089 20061 50003





000
SAUS46 KMFR 231101
MTRMHS
METAR KMHS 231056Z AUTO 00000KT 10SM CLR 01/M02 A3045 RMK AO2 SLP338
T00061022





000
SAUS46 KMFR 231057
MTRSXT
METAR KSXT 231056Z AUTO 14007KT 10SM OVC100 08/M03 A3045 RMK AO2
SLP302 T00781033





000
SAUS46 KMFR 230957
MTRSXT
METAR KSXT 230956Z AUTO 15005KT 10SM OVC110 08/M04 A3043 RMK AO2
SLP300 T00781039





000
SAUS46 KMFR 230957
MTRSXT
METAR KSXT 230956Z AUTO 15005KT 10SM OVC110 08/M04 A3043 RMK AO2
SLP300 T00781039





000
SAUS46 KMFR 230857
MTRSXT
METAR KSXT 230856Z AUTO 14005KT 10SM BKN110 08/M05 A3042 RMK AO2
SLP294 T00831050 53004





000
SAUS46 KMFR 230757
MTRSXT
METAR KSXT 230756Z AUTO 13003KT 10SM CLR 08/M06 A3043 RMK AO2 SLP300
T00831056 401060061





000
SAUS46 KMFR 230757
MTRSXT
METAR KSXT 230756Z AUTO 13003KT 10SM CLR 08/M06 A3043 RMK AO2 SLP300
T00831056 401060061





000
SAUS46 KMFR 230657
MTRSXT
METAR KSXT 230656Z AUTO 14008KT 10SM CLR 07/M05 A3039 RMK AO2 SLP287
T00671050





000
SAUS46 KMFR 230557
MTRSXT
METAR KSXT 230556Z AUTO 14007KT 10SM BKN120 09/M07 A3041 RMK AO2
SLP292 T00891072 10094 20067 51013





000
SAUS46 KMFR 230457
MTRSXT
METAR KSXT 230456Z AUTO 15008KT 10SM CLR 08/M07 A3041 RMK AO2 SLP292
T00831067





000
SAUS46 KMFR 230357
MTRSXT
METAR KSXT 230356Z AUTO 13008KT 10SM CLR 07/M06 A3039 RMK AO2 SLP288
T00721056





000
SAUS46 KMFR 230257
MTRSXT
METAR KSXT 230256Z AUTO 13009KT 10SM CLR 07/M04 A3037 RMK AO2 SLP279
T00721039 51009





000
SAUS46 KMFR 230157
MTRSXT
METAR KSXT 230156Z AUTO 14009KT 10SM CLR 08/M03 A3036 RMK AO2 SLP280
T00781033





000
SAUS46 KMFR 230100
MTRMHS
METAR KMHS 230056Z AUTO 04003KT 10SM CLR 08/M01 A3035 RMK AO2 SLP305
T00831006





000
SAUS46 KMFR 230057
MTRSXT
METAR KSXT 230056Z AUTO 13008KT 10SM CLR 07/M02 A3035 RMK AO2 SLP279
T00671022





000
SAUS46 KMFR 230000
MTRMHS
METAR KMHS 222356Z AUTO 31009G16KT 10SM FEW100 09/M02 A3034 RMK AO2
SLP296 T00941017 10111 20078 51007





000
SAUS46 KMFR 222357
MTRSXT
METAR KSXT 222356Z AUTO 12004KT 10SM CLR 09/M04 A3034 RMK AO2 SLP269
T00891039 10106 20072 50000





000
SAUS46 KMFR 222257
MTRSXT
METAR KSXT 222256Z AUTO 06003KT 10SM FEW075 OVC100 09/M03 A3034 RMK
AO2 SLP269 T00941028





000
SAUS46 KMFR 222200
MTRMHS
METAR KMHS 222156Z AUTO VRB04KT 10SM OVC100 09/M02 A3032 RMK AO2
SLP293 T00891017





000
SAUS46 KMFR 222157
MTRSXT
METAR KSXT 222156Z AUTO 32004KT 10SM FEW060 SCT080 OVC100 08/M02
A3034 RMK AO2 SLP270 T00831022





000
SAUS46 KMFR 222057
MTRSXT
METAR KSXT 222056Z AUTO 00000KT 10SM SCT055 OVC070 09/M01 A3034 RMK
AO2 SLP267 T00891006 51014





000
SAUS46 KMFR 221957
MTRSXT
METAR KSXT 221956Z AUTO 10003KT 10SM OVC070 08/M03 A3032 RMK AO2
SLP262 T00831033





000
SAUS46 KMFR 221858
MTRSXT
METAR KSXT 221856Z AUTO 12004KT 10SM BKN095 09/M05 A3031 RMK AO2
SLP256 T00941050





000
SAUS46 KMFR 221757
MTRSXT
METAR KSXT 221756Z AUTO 15004KT 10SM BKN090 OVC110 07/M05 A3029 RMK
AO2 SLP255 T00721050 10094 20061 53018





000
SAUS46 KMFR 221700
MTRMHS
METAR KMHS 221656Z AUTO 00000KT 10SM CLR 03/M02 A3030 RMK AO2 SLP295
T00331017





000
SAUS46 KMFR 221657
MTRSXT
METAR KSXT 221656Z AUTO 11003KT 10SM BKN080 OVC100 08/M06 A3026 RMK
AO2 SLP243 T00831061





000
SAUS46 KMFR 221600
MTRMHS
METAR KMHS 221556Z AUTO 05004KT 7SM CLR 01/M02 A3028 RMK AO2 SLP289
T00111022





000
SAUS46 KMFR 221557
MTRSXT
METAR KSXT 221556Z AUTO 21005KT 10SM BKN060 OVC075 08/M06 A3025 RMK
AO2 SLP240 T00781061





000
SAUS46 KMFR 221457
MTRSXT
METAR KSXT 221456Z AUTO 13006KT 10SM OVC080 08/M07 A3023 RMK AO2
SLP232 T00781067 53002





000
SAUS46 KMFR 221400
MTRMHS
METAR KMHS 221356Z AUTO 00000KT 10SM CLR 02/M02 A3026 RMK AO2 SLP274
T00221022





000
SAUS46 KMFR 221357
MTRSXT
METAR KSXT 221356Z AUTO 11008KT 10SM CLR 07/M06 A3022 RMK AO2 SLP232
T00671061





000
SAUS46 KMFR 221257
MTRSXT
METAR KSXT 221256Z AUTO 11011KT 10SM SCT100 BKN120 06/M06 A3022 RMK
AO2 SLP232 T00611056





000
SAUS46 KMFR 221200
MTRMHS
METAR KMHS 221156Z AUTO 00000KT 10SM CLR 03/M03 A3027 RMK AO2 SLP271
T00331033 10033 21006 52006





000
SAUS46 KMFR 221157
MTRSXT
METAR KSXT 221156Z AUTO 12008KT 10SM FEW050 OVC100 07/M06 A3022 RMK
AO2 SLP232 T00671061 10078 20067 58001





000
SAUS46 KMFR 221057
MTRSXT
METAR KSXT 221056Z AUTO 11009KT 10SM SCT055 OVC090 07/M06 A3023 RMK
AO2 SLP231 T00671056





000
SAUS46 KMFR 221000
MTRMHS
METAR KMHS 220956Z AUTO 00000KT 10SM CLR 01/M03 A3025 RMK AO2 SLP269
T00111033





000
SAUS46 KMFR 220957
MTRSXT
METAR KSXT 220956Z AUTO 13009KT 10SM SCT070 OVC095 07/M06 A3023 RMK
AO2 SLP235 T00671056





000
SAUS46 KMFR 220957
MTRSXT
METAR KSXT 220956Z AUTO 13009KT 10SM SCT070 OVC095 07/M06 A3023 RMK
AO2 SLP235 T00671056





000
SAUS46 KMFR 220858
MTRSXT
METAR KSXT 220856Z AUTO 11008KT 10SM FEW080 OVC100 07/M06 A3023 RMK
AO2 SLP229 T00721056 51008





000
SAUS46 KMFR 220757
MTRSXT
METAR KSXT 220756Z AUTO 12009KT 10SM OVC110 07/M06 A3022 RMK AO2
SLP229 T00721061 400890022





000
SAUS46 KMFR 220757
MTRSXT
METAR KSXT 220756Z AUTO 12009KT 10SM OVC110 07/M06 A3022 RMK AO2
SLP229 T00721061 400890022





000
SAUS46 KMFR 220657
MTRSXT
METAR KSXT 220656Z AUTO 12010KT 10SM BKN100 08/M06 A3021 RMK AO2
SLP224 T00781061





000
SAUS46 KMFR 220557
MTRSXT
METAR KSXT 220556Z AUTO 12010KT 10SM CLR 07/M06 A3020 RMK AO2 SLP228
T00671056 10078 20067 52004





000
SAUS46 KMFR 220457
MTRSXT
METAR KSXT 220456Z AUTO 11009KT 10SM BKN120 07/M06 A3019 RMK AO2
SLP228 T00671061





000
SAUS46 KMFR 220400
MTRMHS
METAR KMHS 220356Z AUTO 04003KT 4SM HZ CLR 02/M02 A3021 RMK AO2
SLP271 T00171022





000
SAUS46 KMFR 220400
MTRMHS
METAR KMHS 220356Z AUTO 04003KT 4SM HZ CLR 02/M02 A3021 RMK AO2
SLP271 T00171022





000
SAUS46 KMFR 220357
MTRSXT
METAR KSXT 220356Z AUTO 12009KT 10SM FEW120 07/M06 A3019 RMK AO2
SLP229 T00721056





000
SAUS46 KMFR 220357
MTRSXT
METAR KSXT 220356Z AUTO 12009KT 10SM FEW120 07/M06 A3019 RMK AO2
SLP229 T00721056





    US Dept of Commerce
    National Oceanic and Atmospheric Administration
    National Weather Service
    1325 East West Highway
    Silver Spring, MD 20910
    Page Author: NWS Internet Services Team
Disclaimer
Information Quality
Credits
Glossary
Privacy Policy
Freedom of Information Act (FOIA)
About Us
Career Opportunities